sensor_id;sensor_type;location;lat;lon;timestamp;P1;durP1;ratioP1;P2;durP2;ratioP2
16998;SDS011;10211;49.476;11.010;2023-04-15T00:00:43;4.10;;;3.60;;
16998;SDS011;10211;49.476;11.010;2023-04-15T00:03:10;4.33;;;3.70;;
16998;SDS011;10211;49.476;11.010;2023-04-15T00:05:37;4.30;;;3.90;;
16998;SDS011;10211;49.476;11.010;2023-04-15T00:08:05;5.83;;;4.13;;
16998;SDS011;10211;49.476;11.010;2023-04-15T00:10:32;5.77;;;4.00;;
16998;SDS011;10211;49.476;11.010;2023-04-15T00:12:59;5.87;;;3.80;;
16998;SDS011;10211;49.476;11.010;2023-04-15T00:15:26;4.10;;;3.73;;
16998;SDS011;10211;49.476;11.010;2023-04-15T00:17:52;4.20;;;3.80;;
16998;SDS011;10211;49.476;11.010;2023-04-15T00:20:19;3.87;;;3.40;;
16998;SDS011;10211;49.476;11.010;2023-04-15T00:22:46;3.70;;;3.33;;
16998;SDS011;10211;49.476;11.010;2023-04-15T00:25:14;6.27;;;4.00;;
16998;SDS011;10211;49.476;11.010;2023-04-15T00:27:42;4.07;;;3.67;;
16998;SDS011;10211;49.476;11.010;2023-04-15T00:30:09;4.47;;;3.73;;
16998;SDS011;10211;49.476;11.010;2023-04-15T00:32:36;5.53;;;3.60;;
16998;SDS011;10211;49.476;11.010;2023-04-15T00:35:03;4.50;;;4.03;;
16998;SDS011;10211;49.476;11.010;2023-04-15T00:37:30;4.63;;;3.73;;
16998;SDS011;10211;49.476;11.010;2023-04-15T00:39:59;4.73;;;3.63;;
16998;SDS011;10211;49.476;11.010;2023-04-15T00:42:27;3.93;;;3.30;;
16998;SDS011;10211;49.476;11.010;2023-04-15T00:44:54;7.87;;;4.13;;
16998;SDS011;10211;49.476;11.010;2023-04-15T00:47:21;4.73;;;3.33;;
16998;SDS011;10211;49.476;11.010;2023-04-15T00:49:48;3.97;;;3.30;;
16998;SDS011;10211;49.476;11.010;2023-04-15T00:52:15;6.00;;;3.67;;
16998;SDS011;10211;49.476;11.010;2023-04-15T00:54:43;5.20;;;3.30;;
16998;SDS011;10211;49.476;11.010;2023-04-15T00:57:10;4.53;;;3.70;;
16998;SDS011;10211;49.476;11.010;2023-04-15T00:59:38;3.93;;;3.60;;
16998;SDS011;10211;49.476;11.010;2023-04-15T01:02:05;4.50;;;3.60;;
16998;SDS011;10211;49.476;11.010;2023-04-15T01:04:32;4.33;;;3.83;;
16998;SDS011;10211;49.476;11.010;2023-04-15T01:06:58;3.40;;;3.10;;
16998;SDS011;10211;49.476;11.010;2023-04-15T01:09:25;4.13;;;3.47;;
16998;SDS011;10211;49.476;11.010;2023-04-15T01:11:52;4.10;;;3.70;;
16998;SDS011;10211;49.476;11.010;2023-04-15T01:14:20;3.77;;;3.47;;
16998;SDS011;10211;49.476;11.010;2023-04-15T01:16:48;4.10;;;3.60;;
16998;SDS011;10211;49.476;11.010;2023-04-15T01:19:15;5.30;;;3.90;;
16998;SDS011;10211;49.476;11.010;2023-04-15T01:21:43;3.63;;;3.20;;
16998;SDS011;10211;49.476;11.010;2023-04-15T01:24:11;4.47;;;3.83;;
16998;SDS011;10211;49.476;11.010;2023-04-15T01:26:44;4.50;;;4.07;;
16998;SDS011;10211;49.476;11.010;2023-04-15T01:29:12;4.63;;;3.43;;
16998;SDS011;10211;49.476;11.010;2023-04-15T01:31:39;4.37;;;3.93;;
16998;SDS011;10211;49.476;11.010;2023-04-15T01:34:06;4.63;;;4.17;;
16998;SDS011;10211;49.476;11.010;2023-04-15T01:36:33;4.03;;;3.30;;
16998;SDS011;10211;49.476;11.010;2023-04-15T01:38:59;4.20;;;3.43;;
16998;SDS011;10211;49.476;11.010;2023-04-15T01:41:26;4.30;;;3.40;;
16998;SDS011;10211;49.476;11.010;2023-04-15T01:43:54;4.93;;;3.17;;
16998;SDS011;10211;49.476;11.010;2023-04-15T01:46:21;3.40;;;3.10;;
16998;SDS011;10211;49.476;11.010;2023-04-15T01:48:48;5.70;;;3.57;;
16998;SDS011;10211;49.476;11.010;2023-04-15T01:51:15;5.33;;;3.33;;
16998;SDS011;10211;49.476;11.010;2023-04-15T01:53:41;4.33;;;3.80;;
16998;SDS011;10211;49.476;11.010;2023-04-15T01:56:08;3.53;;;3.23;;
16998;SDS011;10211;49.476;11.010;2023-04-15T01:58:35;3.93;;;3.53;;
16998;SDS011;10211;49.476;11.010;2023-04-15T02:01:04;4.77;;;3.67;;
16998;SDS011;10211;49.476;11.010;2023-04-15T02:03:31;4.40;;;3.67;;
16998;SDS011;10211;49.476;11.010;2023-04-15T02:05:57;3.70;;;3.40;;
16998;SDS011;10211;49.476;11.010;2023-04-15T02:08:24;4.53;;;3.50;;
16998;SDS011;10211;49.476;11.010;2023-04-15T02:10:51;3.53;;;3.00;;
16998;SDS011;10211;49.476;11.010;2023-04-15T02:13:17;6.13;;;3.70;;
16998;SDS011;10211;49.476;11.010;2023-04-15T02:15:47;4.07;;;3.50;;
16998;SDS011;10211;49.476;11.010;2023-04-15T02:18:16;11.70;;;3.80;;
16998;SDS011;10211;49.476;11.010;2023-04-15T02:20:43;3.63;;;3.30;;
16998;SDS011;10211;49.476;11.010;2023-04-15T02:23:11;3.40;;;3.10;;
16998;SDS011;10211;49.476;11.010;2023-04-15T02:25:38;5.23;;;3.67;;
16998;SDS011;10211;49.476;11.010;2023-04-15T02:28:05;4.47;;;3.93;;
16998;SDS011;10211;49.476;11.010;2023-04-15T02:30:31;3.50;;;3.20;;
16998;SDS011;10211;49.476;11.010;2023-04-15T02:32:58;4.00;;;3.70;;
16998;SDS011;10211;49.476;11.010;2023-04-15T02:35:27;3.77;;;3.33;;
16998;SDS011;10211;49.476;11.010;2023-04-15T02:37:53;4.13;;;3.20;;
16998;SDS011;10211;49.476;11.010;2023-04-15T02:40:20;3.87;;;2.80;;
16998;SDS011;10211;49.476;11.010;2023-04-15T02:42:47;4.03;;;3.63;;
16998;SDS011;10211;49.476;11.010;2023-04-15T02:45:14;3.63;;;3.30;;
16998;SDS011;10211;49.476;11.010;2023-04-15T02:47:42;4.13;;;3.73;;
16998;SDS011;10211;49.476;11.010;2023-04-15T02:50:10;4.03;;;3.23;;
16998;SDS011;10211;49.476;11.010;2023-04-15T02:52:39;8.37;;;3.60;;
16998;SDS011;10211;49.476;11.010;2023-04-15T02:55:06;4.10;;;3.50;;
16998;SDS011;10211;49.476;11.010;2023-04-15T02:57:33;3.80;;;3.10;;
16998;SDS011;10211;49.476;11.010;2023-04-15T03:00:03;3.73;;;3.43;;
16998;SDS011;10211;49.476;11.010;2023-04-15T03:02:33;4.80;;;3.43;;
16998;SDS011;10211;49.476;11.010;2023-04-15T03:05:00;3.43;;;3.13;;
16998;SDS011;10211;49.476;11.010;2023-04-15T03:07:27;4.73;;;3.03;;
16998;SDS011;10211;49.476;11.010;2023-04-15T03:09:55;6.27;;;3.30;;
16998;SDS011;10211;49.476;11.010;2023-04-15T03:12:21;4.37;;;3.43;;
16998;SDS011;10211;49.476;11.010;2023-04-15T03:14:48;4.80;;;3.30;;
16998;SDS011;10211;49.476;11.010;2023-04-15T03:17:15;5.63;;;3.97;;
16998;SDS011;10211;49.476;11.010;2023-04-15T03:19:42;4.00;;;3.53;;
16998;SDS011;10211;49.476;11.010;2023-04-15T03:22:09;5.33;;;3.77;;
16998;SDS011;10211;49.476;11.010;2023-04-15T03:24:36;3.97;;;3.33;;
16998;SDS011;10211;49.476;11.010;2023-04-15T03:27:04;5.70;;;4.30;;
16998;SDS011;10211;49.476;11.010;2023-04-15T03:29:32;5.10;;;3.87;;
16998;SDS011;10211;49.476;11.010;2023-04-15T03:31:58;3.37;;;3.07;;
16998;SDS011;10211;49.476;11.010;2023-04-15T03:34:25;8.17;;;3.93;;
16998;SDS011;10211;49.476;11.010;2023-04-15T03:36:52;7.80;;;4.00;;
16998;SDS011;10211;49.476;11.010;2023-04-15T03:39:19;3.87;;;3.47;;
16998;SDS011;10211;49.476;11.010;2023-04-15T03:41:45;8.90;;;4.30;;
16998;SDS011;10211;49.476;11.010;2023-04-15T03:44:13;5.17;;;4.37;;
16998;SDS011;10211;49.476;11.010;2023-04-15T03:46:40;6.27;;;4.13;;
16998;SDS011;10211;49.476;11.010;2023-04-15T03:49:07;6.07;;;3.80;;
16998;SDS011;10211;49.476;11.010;2023-04-15T03:51:35;5.47;;;4.50;;
16998;SDS011;10211;49.476;11.010;2023-04-15T03:54:01;4.93;;;4.47;;
16998;SDS011;10211;49.476;11.010;2023-04-15T03:56:28;5.23;;;4.10;;
16998;SDS011;10211;49.476;11.010;2023-04-15T03:58:55;5.30;;;4.53;;
16998;SDS011;10211;49.476;11.010;2023-04-15T04:01:23;5.93;;;4.37;;
16998;SDS011;10211;49.476;11.010;2023-04-15T04:03:50;7.47;;;4.27;;
16998;SDS011;10211;49.476;11.010;2023-04-15T04:06:16;7.20;;;4.10;;
16998;SDS011;10211;49.476;11.010;2023-04-15T04:08:43;4.77;;;4.13;;
16998;SDS011;10211;49.476;11.010;2023-04-15T04:11:10;5.47;;;4.40;;
16998;SDS011;10211;49.476;11.010;2023-04-15T04:13:37;4.83;;;4.13;;
16998;SDS011;10211;49.476;11.010;2023-04-15T04:16:04;4.93;;;4.40;;
16998;SDS011;10211;49.476;11.010;2023-04-15T04:18:32;6.13;;;4.20;;
16998;SDS011;10211;49.476;11.010;2023-04-15T04:20:59;6.80;;;4.20;;
16998;SDS011;10211;49.476;11.010;2023-04-15T04:23:26;5.13;;;4.63;;
16998;SDS011;10211;49.476;11.010;2023-04-15T04:25:52;4.67;;;4.03;;
16998;SDS011;10211;49.476;11.010;2023-04-15T04:28:19;4.30;;;3.90;;
16998;SDS011;10211;49.476;11.010;2023-04-15T04:30:46;4.37;;;3.97;;
16998;SDS011;10211;49.476;11.010;2023-04-15T04:33:13;4.07;;;3.70;;
16998;SDS011;10211;49.476;11.010;2023-04-15T04:35:41;5.33;;;4.40;;
16998;SDS011;10211;49.476;11.010;2023-04-15T04:38:07;4.83;;;3.83;;
16998;SDS011;10211;49.476;11.010;2023-04-15T04:40:34;5.50;;;4.30;;
16998;SDS011;10211;49.476;11.010;2023-04-15T04:43:01;4.67;;;4.27;;
16998;SDS011;10211;49.476;11.010;2023-04-15T04:45:28;8.13;;;4.67;;
16998;SDS011;10211;49.476;11.010;2023-04-15T04:47:55;5.00;;;4.33;;
16998;SDS011;10211;49.476;11.010;2023-04-15T04:50:22;4.93;;;4.10;;
16998;SDS011;10211;49.476;11.010;2023-04-15T04:52:50;5.80;;;4.67;;
16998;SDS011;10211;49.476;11.010;2023-04-15T04:55:16;4.50;;;4.10;;
16998;SDS011;10211;49.476;11.010;2023-04-15T04:57:43;6.67;;;5.10;;
16998;SDS011;10211;49.476;11.010;2023-04-15T05:00:11;4.90;;;4.30;;
16998;SDS011;10211;49.476;11.010;2023-04-15T05:02:38;7.73;;;4.77;;
16998;SDS011;10211;49.476;11.010;2023-04-15T05:05:06;4.70;;;4.30;;
16998;SDS011;10211;49.476;11.010;2023-04-15T05:07:33;4.97;;;4.47;;
16998;SDS011;10211;49.476;11.010;2023-04-15T05:10:01;6.10;;;4.50;;
16998;SDS011;10211;49.476;11.010;2023-04-15T05:12:28;6.57;;;4.33;;
16998;SDS011;10211;49.476;11.010;2023-04-15T05:14:55;5.23;;;4.10;;
16998;SDS011;10211;49.476;11.010;2023-04-15T05:17:22;4.93;;;3.93;;
16998;SDS011;10211;49.476;11.010;2023-04-15T05:19:49;6.90;;;4.57;;
16998;SDS011;10211;49.476;11.010;2023-04-15T05:22:15;8.33;;;4.77;;
16998;SDS011;10211;49.476;11.010;2023-04-15T05:24:42;4.93;;;4.40;;
16998;SDS011;10211;49.476;11.010;2023-04-15T05:27:10;4.80;;;4.30;;
16998;SDS011;10211;49.476;11.010;2023-04-15T05:29:37;7.00;;;4.53;;
16998;SDS011;10211;49.476;11.010;2023-04-15T05:32:04;5.67;;;4.50;;
16998;SDS011;10211;49.476;11.010;2023-04-15T05:34:31;5.57;;;4.47;;
16998;SDS011;10211;49.476;11.010;2023-04-15T05:36:58;4.70;;;4.30;;
16998;SDS011;10211;49.476;11.010;2023-04-15T05:39:24;6.20;;;4.47;;
16998;SDS011;10211;49.476;11.010;2023-04-15T05:41:51;5.97;;;4.33;;
16998;SDS011;10211;49.476;11.010;2023-04-15T05:44:19;5.90;;;4.43;;
16998;SDS011;10211;49.476;11.010;2023-04-15T05:46:46;5.17;;;4.30;;
16998;SDS011;10211;49.476;11.010;2023-04-15T05:49:13;5.00;;;4.47;;
16998;SDS011;10211;49.476;11.010;2023-04-15T05:51:39;5.93;;;4.90;;
16998;SDS011;10211;49.476;11.010;2023-04-15T05:54:06;7.53;;;4.97;;
16998;SDS011;10211;49.476;11.010;2023-04-15T05:56:33;4.73;;;3.73;;
16998;SDS011;10211;49.476;11.010;2023-04-15T05:59:00;5.90;;;4.73;;
16998;SDS011;10211;49.476;11.010;2023-04-15T06:01:28;5.17;;;4.30;;
16998;SDS011;10211;49.476;11.010;2023-04-15T06:03:55;5.03;;;4.53;;
16998;SDS011;10211;49.476;11.010;2023-04-15T06:06:22;6.70;;;4.30;;
16998;SDS011;10211;49.476;11.010;2023-04-15T06:08:49;6.57;;;5.40;;
16998;SDS011;10211;49.476;11.010;2023-04-15T06:11:16;5.67;;;4.60;;
16998;SDS011;10211;49.476;11.010;2023-04-15T06:13:43;6.63;;;5.27;;
16998;SDS011;10211;49.476;11.010;2023-04-15T06:16:09;5.73;;;4.67;;
16998;SDS011;10211;49.476;11.010;2023-04-15T06:18:38;4.80;;;4.27;;
16998;SDS011;10211;49.476;11.010;2023-04-15T06:21:04;4.87;;;4.30;;
16998;SDS011;10211;49.476;11.010;2023-04-15T06:23:33;3.97;;;3.47;;
16998;SDS011;10211;49.476;11.010;2023-04-15T06:26:00;8.60;;;4.20;;
16998;SDS011;10211;49.476;11.010;2023-04-15T06:28:26;4.87;;;4.20;;
16998;SDS011;10211;49.476;11.010;2023-04-15T06:30:53;4.90;;;4.47;;
16998;SDS011;10211;49.476;11.010;2023-04-15T06:33:20;5.17;;;4.67;;
16998;SDS011;10211;49.476;11.010;2023-04-15T06:35:48;4.57;;;4.13;;
16998;SDS011;10211;49.476;11.010;2023-04-15T06:38:15;7.57;;;4.20;;
16998;SDS011;10211;49.476;11.010;2023-04-15T06:40:42;7.17;;;5.13;;
16998;SDS011;10211;49.476;11.010;2023-04-15T06:43:08;8.17;;;5.50;;
16998;SDS011;10211;49.476;11.010;2023-04-15T06:45:35;5.07;;;4.53;;
16998;SDS011;10211;49.476;11.010;2023-04-15T06:48:02;4.40;;;4.00;;
16998;SDS011;10211;49.476;11.010;2023-04-15T06:50:29;6.37;;;4.57;;
16998;SDS011;10211;49.476;11.010;2023-04-15T06:52:57;5.53;;;4.20;;
16998;SDS011;10211;49.476;11.010;2023-04-15T06:55:24;6.67;;;4.83;;
16998;SDS011;10211;49.476;11.010;2023-04-15T06:57:51;5.53;;;4.80;;
16998;SDS011;10211;49.476;11.010;2023-04-15T07:00:18;5.67;;;4.63;;
16998;SDS011;10211;49.476;11.010;2023-04-15T07:02:45;6.93;;;4.93;;
16998;SDS011;10211;49.476;11.010;2023-04-15T07:05:11;6.27;;;4.40;;
16998;SDS011;10211;49.476;11.010;2023-04-15T07:07:38;4.77;;;4.33;;
16998;SDS011;10211;49.476;11.010;2023-04-15T07:10:07;8.20;;;4.50;;
16998;SDS011;10211;49.476;11.010;2023-04-15T07:12:35;5.20;;;4.70;;
16998;SDS011;10211;49.476;11.010;2023-04-15T07:15:03;8.47;;;5.30;;
16998;SDS011;10211;49.476;11.010;2023-04-15T07:17:30;5.40;;;4.90;;
16998;SDS011;10211;49.476;11.010;2023-04-15T07:19:57;5.63;;;4.70;;
16998;SDS011;10211;49.476;11.010;2023-04-15T07:22:24;5.73;;;4.67;;
16998;SDS011;10211;49.476;11.010;2023-04-15T07:24:51;5.30;;;4.33;;
16998;SDS011;10211;49.476;11.010;2023-04-15T07:27:19;4.90;;;4.40;;
16998;SDS011;10211;49.476;11.010;2023-04-15T07:29:45;6.83;;;3.70;;
16998;SDS011;10211;49.476;11.010;2023-04-15T07:32:13;8.80;;;4.00;;
16998;SDS011;10211;49.476;11.010;2023-04-15T07:34:39;5.33;;;4.20;;
16998;SDS011;10211;49.476;11.010;2023-04-15T07:37:07;4.17;;;3.73;;
16998;SDS011;10211;49.476;11.010;2023-04-15T07:39:33;5.57;;;4.23;;
16998;SDS011;10211;49.476;11.010;2023-04-15T07:42:01;4.97;;;4.47;;
16998;SDS011;10211;49.476;11.010;2023-04-15T07:44:29;4.63;;;4.23;;
16998;SDS011;10211;49.476;11.010;2023-04-15T07:46:56;5.73;;;5.10;;
16998;SDS011;10211;49.476;11.010;2023-04-15T07:49:23;3.87;;;3.57;;
16998;SDS011;10211;49.476;11.010;2023-04-15T07:51:52;4.30;;;3.90;;
16998;SDS011;10211;49.476;11.010;2023-04-15T07:54:18;4.87;;;3.93;;
16998;SDS011;10211;49.476;11.010;2023-04-15T07:56:45;3.90;;;3.50;;
16998;SDS011;10211;49.476;11.010;2023-04-15T07:59:12;4.20;;;3.80;;
16998;SDS011;10211;49.476;11.010;2023-04-15T08:01:43;4.40;;;4.10;;
16998;SDS011;10211;49.476;11.010;2023-04-15T08:04:09;4.63;;;4.23;;
16998;SDS011;10211;49.476;11.010;2023-04-15T08:06:36;4.73;;;4.37;;
16998;SDS011;10211;49.476;11.010;2023-04-15T08:09:03;4.80;;;4.50;;
16998;SDS011;10211;49.476;11.010;2023-04-15T08:11:31;4.50;;;4.13;;
16998;SDS011;10211;49.476;11.010;2023-04-15T08:13:57;4.60;;;4.20;;
16998;SDS011;10211;49.476;11.010;2023-04-15T08:16:25;4.57;;;4.17;;
16998;SDS011;10211;49.476;11.010;2023-04-15T08:18:54;5.23;;;4.00;;
16998;SDS011;10211;49.476;11.010;2023-04-15T08:21:21;4.07;;;3.77;;
16998;SDS011;10211;49.476;11.010;2023-04-15T08:23:49;3.30;;;3.10;;
16998;SDS011;10211;49.476;11.010;2023-04-15T08:26:18;5.80;;;4.63;;
16998;SDS011;10211;49.476;11.010;2023-04-15T08:28:46;4.07;;;3.77;;
16998;SDS011;10211;49.476;11.010;2023-04-15T08:31:13;3.37;;;3.17;;
16998;SDS011;10211;49.476;11.010;2023-04-15T08:33:41;3.70;;;3.40;;
16998;SDS011;10211;49.476;11.010;2023-04-15T08:36:09;3.27;;;3.00;;
16998;SDS011;10211;49.476;11.010;2023-04-15T08:38:36;2.90;;;2.70;;
16998;SDS011;10211;49.476;11.010;2023-04-15T08:41:03;3.33;;;2.50;;
16998;SDS011;10211;49.476;11.010;2023-04-15T08:43:38;2.70;;;2.50;;
16998;SDS011;10211;49.476;11.010;2023-04-15T08:46:11;2.53;;;2.43;;
16998;SDS011;10211;49.476;11.010;2023-04-15T08:48:39;2.27;;;2.17;;
16998;SDS011;10211;49.476;11.010;2023-04-15T08:51:06;2.30;;;2.20;;
16998;SDS011;10211;49.476;11.010;2023-04-15T08:53:35;1.90;;;1.80;;
16998;SDS011;10211;49.476;11.010;2023-04-15T08:56:04;2.20;;;2.10;;
16998;SDS011;10211;49.476;11.010;2023-04-15T08:58:34;2.50;;;2.30;;
16998;SDS011;10211;49.476;11.010;2023-04-15T09:01:02;2.47;;;2.37;;
16998;SDS011;10211;49.476;11.010;2023-04-15T09:03:29;2.37;;;2.17;;
16998;SDS011;10211;49.476;11.010;2023-04-15T09:05:56;2.40;;;2.30;;
16998;SDS011;10211;49.476;11.010;2023-04-15T09:08:25;2.83;;;2.63;;
16998;SDS011;10211;49.476;11.010;2023-04-15T09:10:52;2.40;;;2.30;;
16998;SDS011;10211;49.476;11.010;2023-04-15T09:13:19;2.83;;;2.60;;
16998;SDS011;10211;49.476;11.010;2023-04-15T09:15:46;2.73;;;2.50;;
16998;SDS011;10211;49.476;11.010;2023-04-15T09:18:19;2.73;;;2.53;;
16998;SDS011;10211;49.476;11.010;2023-04-15T09:20:52;2.90;;;2.70;;
16998;SDS011;10211;49.476;11.010;2023-04-15T09:23:19;2.53;;;2.43;;
16998;SDS011;10211;49.476;11.010;2023-04-15T09:25:47;2.80;;;2.60;;
16998;SDS011;10211;49.476;11.010;2023-04-15T09:28:14;2.83;;;2.50;;
16998;SDS011;10211;49.476;11.010;2023-04-15T09:30:50;2.67;;;2.47;;
16998;SDS011;10211;49.476;11.010;2023-04-15T09:33:20;2.67;;;2.47;;
16998;SDS011;10211;49.476;11.010;2023-04-15T09:35:55;3.00;;;2.80;;
16998;SDS011;10211;49.476;11.010;2023-04-15T09:38:23;3.13;;;2.93;;
16998;SDS011;10211;49.476;11.010;2023-04-15T09:40:51;2.90;;;2.80;;
16998;SDS011;10211;49.476;11.010;2023-04-15T09:43:18;2.20;;;2.00;;
16998;SDS011;10211;49.476;11.010;2023-04-15T09:45:46;2.77;;;2.13;;
16998;SDS011;10211;49.476;11.010;2023-04-15T09:48:15;3.87;;;2.20;;
16998;SDS011;10211;49.476;11.010;2023-04-15T09:50:44;3.00;;;1.90;;
16998;SDS011;10211;49.476;11.010;2023-04-15T09:53:14;1.70;;;1.60;;
16998;SDS011;10211;49.476;11.010;2023-04-15T09:55:44;3.10;;;2.80;;
16998;SDS011;10211;49.476;11.010;2023-04-15T09:58:18;5.37;;;3.73;;
16998;SDS011;10211;49.476;11.010;2023-04-15T10:00:46;1.97;;;1.87;;
16998;SDS011;10211;49.476;11.010;2023-04-15T10:03:14;1.87;;;1.63;;
16998;SDS011;10211;49.476;11.010;2023-04-15T10:05:44;1.57;;;1.43;;
16998;SDS011;10211;49.476;11.010;2023-04-15T10:08:14;1.60;;;1.50;;
16998;SDS011;10211;49.476;11.010;2023-04-15T10:10:43;1.40;;;1.30;;
16998;SDS011;10211;49.476;11.010;2023-04-15T10:13:11;1.60;;;1.50;;
16998;SDS011;10211;49.476;11.010;2023-04-15T10:15:40;1.23;;;1.20;;
16998;SDS011;10211;49.476;11.010;2023-04-15T10:18:10;1.60;;;1.50;;
16998;SDS011;10211;49.476;11.010;2023-04-15T10:20:38;1.60;;;1.50;;
16998;SDS011;10211;49.476;11.010;2023-04-15T10:23:06;2.63;;;1.30;;
16998;SDS011;10211;49.476;11.010;2023-04-15T10:25:34;2.23;;;1.90;;
16998;SDS011;10211;49.476;11.010;2023-04-15T10:28:02;1.83;;;1.73;;
16998;SDS011;10211;49.476;11.010;2023-04-15T10:30:29;1.97;;;1.80;;
16998;SDS011;10211;49.476;11.010;2023-04-15T10:32:59;2.33;;;1.80;;
16998;SDS011;10211;49.476;11.010;2023-04-15T10:35:27;2.07;;;1.83;;
16998;SDS011;10211;49.476;11.010;2023-04-15T10:37:54;3.17;;;2.00;;
16998;SDS011;10211;49.476;11.010;2023-04-15T10:40:22;1.87;;;1.77;;
16998;SDS011;10211;49.476;11.010;2023-04-15T10:42:51;2.00;;;1.90;;
16998;SDS011;10211;49.476;11.010;2023-04-15T10:45:18;2.43;;;2.23;;
16998;SDS011;10211;49.476;11.010;2023-04-15T10:47:45;1.90;;;1.80;;
16998;SDS011;10211;49.476;11.010;2023-04-15T10:50:18;2.13;;;2.03;;
16998;SDS011;10211;49.476;11.010;2023-04-15T10:52:45;2.00;;;1.90;;
16998;SDS011;10211;49.476;11.010;2023-04-15T10:55:18;2.20;;;2.00;;
16998;SDS011;10211;49.476;11.010;2023-04-15T10:57:46;2.73;;;2.53;;
16998;SDS011;10211;49.476;11.010;2023-04-15T11:00:17;3.33;;;2.50;;
16998;SDS011;10211;49.476;11.010;2023-04-15T11:02:46;1.97;;;1.87;;
16998;SDS011;10211;49.476;11.010;2023-04-15T11:05:13;1.90;;;1.80;;
16998;SDS011;10211;49.476;11.010;2023-04-15T11:07:52;1.73;;;1.63;;
16998;SDS011;10211;49.476;11.010;2023-04-15T11:13:20;1.60;;;1.50;;
16998;SDS011;10211;49.476;11.010;2023-04-15T11:16:00;1.40;;;1.30;;
16998;SDS011;10211;49.476;11.010;2023-04-15T11:18:28;1.53;;;1.43;;
16998;SDS011;10211;49.476;11.010;2023-04-15T11:20:58;1.50;;;1.40;;
16998;SDS011;10211;49.476;11.010;2023-04-15T11:23:28;1.53;;;1.40;;
16998;SDS011;10211;49.476;11.010;2023-04-15T11:25:57;1.50;;;1.40;;
16998;SDS011;10211;49.476;11.010;2023-04-15T11:28:25;1.80;;;1.70;;
16998;SDS011;10211;49.476;11.010;2023-04-15T11:30:52;1.90;;;1.70;;
16998;SDS011;10211;49.476;11.010;2023-04-15T11:33:22;8.03;;;3.43;;
16998;SDS011;10211;49.476;11.010;2023-04-15T11:35:49;1.97;;;1.73;;
16998;SDS011;10211;49.476;11.010;2023-04-15T11:38:18;1.80;;;1.70;;
16998;SDS011;10211;49.476;11.010;2023-04-15T11:40:46;1.87;;;1.40;;
16998;SDS011;10211;49.476;11.010;2023-04-15T11:43:16;1.93;;;1.40;;
16998;SDS011;10211;49.476;11.010;2023-04-15T11:45:49;4.50;;;2.67;;
16998;SDS011;10211;49.476;11.010;2023-04-15T11:48:18;10.43;;;6.53;;
16998;SDS011;10211;49.476;11.010;2023-04-15T11:50:51;38.60;;;20.53;;
16998;SDS011;10211;49.476;11.010;2023-04-15T11:53:18;12.53;;;8.20;;
16998;SDS011;10211;49.476;11.010;2023-04-15T11:55:47;27.30;;;14.93;;
16998;SDS011;10211;49.476;11.010;2023-04-15T11:58:16;3.60;;;3.30;;
16998;SDS011;10211;49.476;11.010;2023-04-15T12:00:48;3.13;;;2.83;;
16998;SDS011;10211;49.476;11.010;2023-04-15T12:03:18;2.33;;;2.13;;
16998;SDS011;10211;49.476;11.010;2023-04-15T12:08:48;2.20;;;2.00;;
16998;SDS011;10211;49.476;11.010;2023-04-15T12:11:28;2.00;;;1.80;;
16998;SDS011;10211;49.476;11.010;2023-04-15T12:14:04;5.30;;;3.40;;
16998;SDS011;10211;49.476;11.010;2023-04-15T12:16:33;2.27;;;2.07;;
16998;SDS011;10211;49.476;11.010;2023-04-15T12:19:03;2.20;;;1.70;;
16998;SDS011;10211;49.476;11.010;2023-04-15T12:21:35;3.00;;;2.20;;
16998;SDS011;10211;49.476;11.010;2023-04-15T12:24:03;4.53;;;3.47;;
16998;SDS011;10211;49.476;11.010;2023-04-15T12:26:33;1.77;;;1.67;;
16998;SDS011;10211;49.476;11.010;2023-04-15T12:29:02;2.23;;;2.03;;
16998;SDS011;10211;49.476;11.010;2023-04-15T12:31:30;1.60;;;1.50;;
16998;SDS011;10211;49.476;11.010;2023-04-15T12:33:57;2.00;;;1.83;;
16998;SDS011;10211;49.476;11.010;2023-04-15T12:36:25;2.10;;;1.73;;
16998;SDS011;10211;49.476;11.010;2023-04-15T12:38:52;2.30;;;1.70;;
16998;SDS011;10211;49.476;11.010;2023-04-15T12:41:19;1.80;;;1.70;;
16998;SDS011;10211;49.476;11.010;2023-04-15T12:43:49;1.97;;;1.80;;
16998;SDS011;10211;49.476;11.010;2023-04-15T12:46:16;3.10;;;2.80;;
16998;SDS011;10211;49.476;11.010;2023-04-15T12:48:43;1.90;;;1.80;;
16998;SDS011;10211;49.476;11.010;2023-04-15T12:51:09;2.17;;;1.97;;
16998;SDS011;10211;49.476;11.010;2023-04-15T12:53:36;1.87;;;1.73;;
16998;SDS011;10211;49.476;11.010;2023-04-15T12:56:03;1.70;;;1.43;;
16998;SDS011;10211;49.476;11.010;2023-04-15T12:58:30;3.07;;;2.60;;
16998;SDS011;10211;49.476;11.010;2023-04-15T13:00:58;2.37;;;2.17;;
16998;SDS011;10211;49.476;11.010;2023-04-15T13:03:25;3.73;;;2.63;;
16998;SDS011;10211;49.476;11.010;2023-04-15T13:05:52;1.70;;;1.60;;
16998;SDS011;10211;49.476;11.010;2023-04-15T13:08:18;1.50;;;1.40;;
16998;SDS011;10211;49.476;11.010;2023-04-15T13:10:45;1.53;;;1.43;;
16998;SDS011;10211;49.476;11.010;2023-04-15T13:13:12;1.60;;;1.50;;
16998;SDS011;10211;49.476;11.010;2023-04-15T13:15:39;1.87;;;1.40;;
16998;SDS011;10211;49.476;11.010;2023-04-15T13:18:10;1.40;;;1.30;;
16998;SDS011;10211;49.476;11.010;2023-04-15T13:20:38;1.30;;;1.30;;
16998;SDS011;10211;49.476;11.010;2023-04-15T13:23:04;2.20;;;2.00;;
16998;SDS011;10211;49.476;11.010;2023-04-15T13:25:31;2.57;;;1.80;;
16998;SDS011;10211;49.476;11.010;2023-04-15T13:27:58;1.47;;;1.37;;
16998;SDS011;10211;49.476;11.010;2023-04-15T13:30:25;2.00;;;1.90;;
16998;SDS011;10211;49.476;11.010;2023-04-15T13:32:52;1.40;;;1.30;;
16998;SDS011;10211;49.476;11.010;2023-04-15T13:35:20;1.60;;;1.50;;
16998;SDS011;10211;49.476;11.010;2023-04-15T13:37:47;1.77;;;1.67;;
16998;SDS011;10211;49.476;11.010;2023-04-15T13:40:14;1.97;;;1.50;;
16998;SDS011;10211;49.476;11.010;2023-04-15T13:42:40;1.40;;;1.30;;
16998;SDS011;10211;49.476;11.010;2023-04-15T13:45:08;1.33;;;1.30;;
16998;SDS011;10211;49.476;11.010;2023-04-15T13:47:35;1.33;;;1.30;;
16998;SDS011;10211;49.476;11.010;2023-04-15T13:50:02;1.30;;;1.30;;
16998;SDS011;10211;49.476;11.010;2023-04-15T13:52:30;1.70;;;1.60;;
16998;SDS011;10211;49.476;11.010;2023-04-15T13:54:57;1.73;;;1.63;;
16998;SDS011;10211;49.476;11.010;2023-04-15T13:57:24;1.73;;;1.57;;
16998;SDS011;10211;49.476;11.010;2023-04-15T13:59:51;2.87;;;1.80;;
16998;SDS011;10211;49.476;11.010;2023-04-15T14:02:19;1.70;;;1.60;;
16998;SDS011;10211;49.476;11.010;2023-04-15T14:04:47;1.57;;;1.47;;
16998;SDS011;10211;49.476;11.010;2023-04-15T14:07:13;1.40;;;1.30;;
16998;SDS011;10211;49.476;11.010;2023-04-15T14:09:41;1.43;;;1.33;;
16998;SDS011;10211;49.476;11.010;2023-04-15T14:12:08;2.37;;;1.80;;
16998;SDS011;10211;49.476;11.010;2023-04-15T14:14:35;2.43;;;1.93;;
16998;SDS011;10211;49.476;11.010;2023-04-15T14:17:02;10.33;;;5.73;;
16998;SDS011;10211;49.476;11.010;2023-04-15T14:19:29;4.37;;;2.90;;
16998;SDS011;10211;49.476;11.010;2023-04-15T14:21:56;3.47;;;2.97;;
16998;SDS011;10211;49.476;11.010;2023-04-15T14:24:23;7.17;;;3.97;;
16998;SDS011;10211;49.476;11.010;2023-04-15T14:26:51;5.57;;;4.30;;
16998;SDS011;10211;49.476;11.010;2023-04-15T14:29:18;3.83;;;2.10;;
16998;SDS011;10211;49.476;11.010;2023-04-15T14:31:44;3.73;;;2.83;;
16998;SDS011;10211;49.476;11.010;2023-04-15T14:34:12;3.60;;;2.80;;
16998;SDS011;10211;49.476;11.010;2023-04-15T14:36:39;3.90;;;3.30;;
16998;SDS011;10211;49.476;11.010;2023-04-15T14:39:06;2.10;;;1.90;;
16998;SDS011;10211;49.476;11.010;2023-04-15T14:41:33;2.53;;;2.03;;